Celebrity Constellation — 9HJB9 — position and weather

sailwx.info

Track history (hours):
 
Tides and Currents Weather Stations Pressure Air Temp Water Temp Dewpoint Dewpoint Depression Visibility Wind Speed Wind Dir Waves Ship Positions

Celebrity Constellation

Last reported at 2018-Aug-14 19:45 UTC. Time now 2018-Aug-15 14:50 UTC.
Position N 43°02' E 010°05'.

Length 294 m; draft 8.3 m.

Type: Passenger vessel. MMSI: 249046000.

Date/timePositionNaut miles runAvg speedWind from/ knotsBaromVisibWave heightAir tempDewpointWater temp
2018-Aug-14 19:45N 43°02' E 010°05'415.3
2018-Aug-14 19:30N 43°06' E 010°05'714.8
2018-Aug-14 19:00N 43°13' E 010°07'714.5
2018-Aug-14 18:30N 43°21' E 010°09'714.1
2018-Aug-14 18:00N 43°27' E 010°11'613.0
2018-Aug-14 17:31N 43°32' E 010°16'1 2.2
2018-Aug-14 17:00N 43°33' E 010°18'0 0.0
2018-Aug-14 16:30N 43°33' E 010°18'0 0.0
2018-Aug-14 16:00N 43°33' E 010°18'0 0.0
2018-Aug-14 15:30N 43°33' E 010°18'0 0.0
2018-Aug-14 15:00N 43°33' E 010°18'0 0.0
2018-Aug-14 14:30N 43°33' E 010°18'0 0.0
2018-Aug-14 14:00N 43°33' E 010°18'0 0.0
2018-Aug-14 13:30N 43°33' E 010°18'0 0.0
2018-Aug-14 13:00N 43°33' E 010°18'0 0.0
2018-Aug-14 12:30N 43°33' E 010°18'0 0.0
2018-Aug-14 11:57N 43°33' E 010°18'0 0.0
2018-Aug-14 11:30N 43°33' E 010°18'0 0.0
2018-Aug-14 11:00N 43°33' E 010°18'0 0.0
2018-Aug-14 10:30N 43°33' E 010°18'0 0.0
2018-Aug-14 09:59N 43°33' E 010°18'0 0.0
2018-Aug-14 09:29N 43°33' E 010°18'0 0.0
2018-Aug-14 09:00N 43°33' E 010°18'0 0.0
2018-Aug-14 08:30N 43°33' E 010°18'0 0.0
2018-Aug-14 08:00N 43°33' E 010°18'0 0.0
2018-Aug-14 07:30N 43°33' E 010°18'0 0.0
2018-Aug-14 07:00N 43°33' E 010°18'0 0.0
2018-Aug-14 06:30N 43°33' E 010°18'0 0.0
2018-Aug-14 06:00N 43°33' E 010°18'0 0.0
2018-Aug-14 05:30N 43°33' E 010°18'0 0.0
2018-Aug-14 05:01N 43°33' E 010°18'0 0.0
2018-Aug-14 04:30N 43°33' E 010°18'1 1.6
2018-Aug-14 04:00N 43°32' E 010°17'4 8.3
2018-Aug-14 03:30N 43°30' E 010°13'713.7
2018-Aug-14 03:00N 43°25' E 010°07'816.1
2018-Aug-14 02:30N 43°19' E 009°59'815.6
2018-Aug-14 02:00N 43°16' E 009°49'714.6
2018-Aug-14 01:30N 43°13' E 009°40'714.7
2018-Aug-14 01:00N 43°09' E 009°31'714.7
2018-Aug-14 00:30N 43°06' E 009°22'1314.5
2018-Aug-13 23:37N 43°00' E 009°06'32315.5
2018-Aug-13 02:51N 40°31' E 002°43'715.9
2018-Aug-13 02:25N 40°27' E 002°35'48 1.5
2018-Aug-11 18:09N 40°55' E 001°44'213.0
2018-Aug-11 18:00N 40°57' E 001°45'712.9
2018-Aug-11 17:29N 41°01' E 001°52'613.0
2018-Aug-11 17:00N 41°06' E 001°57'713.2
2018-Aug-11 16:30N 41°11' E 002°03'713.7
2018-Aug-11 16:01N 41°16' E 002°09'510.1
2018-Aug-11 15:30N 41°21' E 002°10'1 0.1
2018-Aug-11 03:34N 41°22' E 002°11'0 0.3
2018-Aug-11 03:30N 41°22' E 002°11'2 4.3
2018-Aug-11 03:00N 41°20' E 002°10'4 8.6
2018-Aug-11 02:30N 41°15' E 002°11'612.3
2018-Aug-11 02:00N 41°09' E 002°11'612.2
2018-Aug-11 01:30N 41°03' E 002°12'9512.3
2018-Aug-10 17:46N 39°28' E 002°22'413.7
2018-Aug-10 17:30N 39°26' E 002°25'612.7
2018-Aug-10 17:01N 39°26' E 002°33'713.6
2018-Aug-10 16:30N 39°32' E 002°39'2 3.3
2018-Aug-10 16:00N 39°33' E 002°38'0 0.0
2018-Aug-10 15:30N 39°33' E 002°38'0 0.0
2018-Aug-10 15:00N 39°33' E 002°38'0 0.0
2018-Aug-10 14:30N 39°33' E 002°38'0 0.0
2018-Aug-10 13:59N 39°33' E 002°38'0 0.0
2018-Aug-10 13:29N 39°33' E 002°38'0 0.0
2018-Aug-10 12:59N 39°33' E 002°38'0 0.0
2018-Aug-10 12:28N 39°33' E 002°38'0 0.0
2018-Aug-10 11:58N 39°33' E 002°38'0 0.0
2018-Aug-10 11:28N 39°33' E 002°38'0 0.0
2018-Aug-10 10:58N 39°33' E 002°38'0 0.0
2018-Aug-10 10:28N 39°33' E 002°38'0 0.0
2018-Aug-10 09:58N 39°33' E 002°38'0 0.0
2018-Aug-10 09:28N 39°33' E 002°38'0 0.0
2018-Aug-10 09:00N 39°33' E 002°38'0 0.0
2018-Aug-10 08:30N 39°33' E 002°38'0 0.0
2018-Aug-10 08:00N 39°33' E 002°38'0 0.0
2018-Aug-10 07:30N 39°33' E 002°38'0 0.0
2018-Aug-10 07:00N 39°33' E 002°38'0 0.0
2018-Aug-10 06:30N 39°33' E 002°38'2 3.1
2018-Aug-10 06:00N 39°32' E 002°38'612.5
2018-Aug-10 05:30N 39°27' E 002°34'611.7
2018-Aug-10 05:00N 39°26' E 002°26'612.5
2018-Aug-10 04:30N 39°29' E 002°20'2510.0
2018-Aug-10 02:00N 39°53' E 002°33'611.6
2018-Aug-10 01:30N 39°57' E 002°38'1411.3
2018-Aug-10 00:19N 40°06' E 002°51'411.6
2018-Aug-10 00:00N 40°09' E 002°54'26410.7
2018-Aug-08 23:23N 43°20' E 006°58'512.4
2018-Aug-08 23:00N 43°23' E 007°02'612.3
2018-Aug-08 22:30N 43°28' E 007°08'712.2
2018-Aug-08 21:55N 43°33' E 007°14'611.8
2018-Aug-08 21:24N 43°39' E 007°18'1 0.1
2018-Aug-08 05:13N 43°39' E 007°19'45 7.1
2018-Aug-07 22:55N 43°43' E 008°21'3 7.5
2018-Aug-07 22:28N 43°45' E 008°25'3 7.3
2018-Aug-07 22:00N 43°47' E 008°28'4 7.3
2018-Aug-07 21:30N 43°50' E 008°32'4 7.2
2018-Aug-07 21:00N 43°52' E 008°36'4 7.3
2018-Aug-07 20:30N 43°54' E 008°40'4 7.3
2018-Aug-07 20:00N 43°57' E 008°44'4 7.3
2018-Aug-07 19:30N 43°59' E 008°48'4 7.1
2018-Aug-07 19:00N 44°01' E 008°51'4 7.2
2018-Aug-07 18:30N 44°04' E 008°55'4 7.3
2018-Aug-07 18:00N 44°06' E 008°59'3 6.7
2018-Aug-07 17:31N 44°09' E 009°02'2 4.7
2018-Aug-07 17:00N 44°10' E 009°05'2 4.7
2018-Aug-07 16:31N 44°11' E 009°08'2 4.9
2018-Aug-07 16:00N 44°13' E 009°10'3 5.6
2018-Aug-07 15:30N 44°15' E 009°13'4 6.9
2018-Aug-07 14:59N 44°18' E 009°14'0 0.2
2018-Aug-07 14:29N 44°18' E 009°14'0 0.0
2018-Aug-07 13:58N 44°18' E 009°14'0 0.0
2018-Aug-07 13:28N 44°18' E 009°14'0 0.0
2018-Aug-07 13:00N 44°18' E 009°14'0 0.0
2018-Aug-07 12:30N 44°18' E 009°14'0 0.0
2018-Aug-07 12:00N 44°18' E 009°14'0 0.0
2018-Aug-07 11:30N 44°18' E 009°14'0 0.0
2018-Aug-07 11:00N 44°18' E 009°14'0 0.0
2018-Aug-07 10:30N 44°18' E 009°14'0 0.0
2018-Aug-07 10:00N 44°18' E 009°14'0 0.0
2018-Aug-07 09:30N 44°18' E 009°14'0 0.0
2018-Aug-07 09:00N 44°18' E 009°14'0 0.0
2018-Aug-07 08:29N 44°18' E 009°14'0 0.0
2018-Aug-07 08:00N 44°18' E 009°14'0 0.0
2018-Aug-07 07:30N 44°18' E 009°14'0 0.0
2018-Aug-07 07:00N 44°18' E 009°14'0 0.0
2018-Aug-07 06:30N 44°18' E 009°14'0 0.0
2018-Aug-07 06:00N 44°18' E 009°14'0 0.0
2018-Aug-07 05:29N 44°18' E 009°14'3 5.6
2018-Aug-07 05:00N 44°17' E 009°17'612.5
2018-Aug-07 04:30N 44°11' E 009°14'613.0
2018-Aug-07 04:00N 44°05' E 009°11'713.3
2018-Aug-07 03:30N 43°58' E 009°08'713.4
2018-Aug-07 03:00N 43°52' E 009°05'714.0
2018-Aug-07 02:30N 43°45' E 009°02'713.6
2018-Aug-07 02:01N 43°39' E 008°59'713.6
2018-Aug-07 01:31N 43°32' E 008°57'713.5
2018-Aug-07 01:00N 43°26' E 008°54'713.5
2018-Aug-07 00:30N 43°19' E 008°51'713.8
2018-Aug-07 00:01N 43°13' E 008°48'713.9
2018-Aug-06 23:31N 43°06' E 008°46'713.8
2018-Aug-06 23:00N 42°60' E 008°43'713.9
2018-Aug-06 22:30N 42°53' E 008°40'713.9
2018-Aug-06 22:00N 42°46' E 008°37'713.9
2018-Aug-06 21:30N 42°40' E 008°34'714.2
2018-Aug-06 21:00N 42°33' E 008°31'714.5
2018-Aug-06 20:30N 42°26' E 008°28'714.0
2018-Aug-06 20:00N 42°19' E 008°27'714.3
2018-Aug-06 19:30N 42°12' E 008°28'814.2
2018-Aug-06 18:55N 42°04' E 008°29'614.3
2018-Aug-06 18:30N 41°58' E 008°29'714.2
2018-Aug-06 18:00N 41°51' E 008°30'14 1.3
2018-Aug-06 07:25N 41°39' E 008°39'818.1
2018-Aug-06 06:59N 41°32' E 008°43'21517.9
2018-Aug-05 19:00N 40°43' E 013°21'918.4
2018-Aug-05 18:30N 40°41' E 013°33'918.5
2018-Aug-05 18:00N 40°39' E 013°44'918.3
2018-Aug-05 17:30N 40°39' E 013°57'917.2
2018-Aug-05 17:00N 40°41' E 014°07'817.0
2018-Aug-05 16:30N 40°47' E 014°15'3 5.5
2018-Aug-05 15:55N 40°50' E 014°16'0 0.0
2018-Aug-05 15:28N 40°50' E 014°16'0 0.0
2018-Aug-05 14:58N 40°50' E 014°16'0 0.0
2018-Aug-05 14:00N 40°50' E 014°16'0 0.0
2018-Aug-05 13:30N 40°50' E 014°16'0 0.0
2018-Aug-05 12:59N 40°50' E 014°16'0 0.0
2018-Aug-05 12:27N 40°50' E 014°16'0 0.0
2018-Aug-05 12:00N 40°50' E 014°16'0 0.0
2018-Aug-05 11:26N 40°50' E 014°16'0 0.0
2018-Aug-05 10:59N 40°50' E 014°16'0 0.0
2018-Aug-05 10:29N 40°50' E 014°16'0 0.0
2018-Aug-05 09:59N 40°50' E 014°16'0 0.0
2018-Aug-05 09:29N 40°50' E 014°16'0 0.0
2018-Aug-05 08:59N 40°50' E 014°16'0 0.0
2018-Aug-05 08:29N 40°50' E 014°16'0 0.0
2018-Aug-05 07:59N 40°50' E 014°16'0 0.0
2018-Aug-05 07:29N 40°50' E 014°16'0 0.0
2018-Aug-05 06:56N 40°50' E 014°16'0 0.0
2018-Aug-05 06:29N 40°50' E 014°16'0 0.0
2018-Aug-05 05:59N 40°50' E 014°16'0 0.0
2018-Aug-05 05:29N 40°50' E 014°16'0 0.0
2018-Aug-05 05:00N 40°50' E 014°16'0 0.4
2018-Aug-05 04:31N 40°50' E 014°16'3 5.2
2018-Aug-05 04:01N 40°48' E 014°16'611.5
2018-Aug-05 03:31N 40°44' E 014°11'612.4
2018-Aug-05 03:01N 40°39' E 014°05'612.3
2018-Aug-05 02:31N 40°39' E 013°57'612.6
2018-Aug-05 02:01N 40°40' E 013°48'713.1
2018-Aug-05 01:31N 40°44' E 013°42'713.0
2018-Aug-05 01:00N 40°48' E 013°35'612.8
2018-Aug-05 00:31N 40°52' E 013°28'612.7
2018-Aug-05 00:01N 40°55' E 013°21'612.8
2018-Aug-04 23:30N 40°58' E 013°14'712.9
2018-Aug-04 23:00N 41°02' E 013°06'712.8
2018-Aug-04 22:26N 41°06' E 012°58'912.9
2018-Aug-04 21:46N 41°09' E 012°48'313.2
2018-Aug-04 21:31N 41°11' E 012°44'1412.7
2018-Aug-04 20:24N 41°19' E 012°29'512.7
2018-Aug-04 19:59N 41°22' E 012°23'  
Track history (hours):
 
Tides and Currents Weather Stations Pressure Air Temp Water Temp Dewpoint Dewpoint Depression Visibility Wind Speed Wind Dir Waves Ship Positions

Celebrity Constellation

Last reported at 2018-Aug-14 19:45 UTC. Time now 2018-Aug-15 14:50 UTC.
Position N 43°02' E 010°05'.

Length 294 m; draft 8.3 m.

Type: Passenger vessel. MMSI: 249046000.

Date/timePositionNaut miles runAvg speedWind from/ knotsBaromVisibWave heightAir tempDewpointWater temp
2018-Aug-14 19:45N 43°02' E 010°05'415.3
2018-Aug-14 19:30N 43°06' E 010°05'714.8
2018-Aug-14 19:00N 43°13' E 010°07'714.5
2018-Aug-14 18:30N 43°21' E 010°09'714.1
2018-Aug-14 18:00N 43°27' E 010°11'613.0
2018-Aug-14 17:31N 43°32' E 010°16'1 2.2
2018-Aug-14 17:00N 43°33' E 010°18'0 0.0
2018-Aug-14 16:30N 43°33' E 010°18'0 0.0
2018-Aug-14 16:00N 43°33' E 010°18'0 0.0
2018-Aug-14 15:30N 43°33' E 010°18'0 0.0
2018-Aug-14 15:00N 43°33' E 010°18'0 0.0
2018-Aug-14 14:30N 43°33' E 010°18'0 0.0
2018-Aug-14 14:00N 43°33' E 010°18'0 0.0
2018-Aug-14 13:30N 43°33' E 010°18'0 0.0
2018-Aug-14 13:00N 43°33' E 010°18'0 0.0
2018-Aug-14 12:30N 43°33' E 010°18'0 0.0
2018-Aug-14 11:57N 43°33' E 010°18'0 0.0
2018-Aug-14 11:30N 43°33' E 010°18'0 0.0
2018-Aug-14 11:00N 43°33' E 010°18'0 0.0
2018-Aug-14 10:30N 43°33' E 010°18'0 0.0
2018-Aug-14 09:59N 43°33' E 010°18'0 0.0
2018-Aug-14 09:29N 43°33' E 010°18'0 0.0
2018-Aug-14 09:00N 43°33' E 010°18'0 0.0
2018-Aug-14 08:30N 43°33' E 010°18'0 0.0
2018-Aug-14 08:00N 43°33' E 010°18'0 0.0
2018-Aug-14 07:30N 43°33' E 010°18'0 0.0
2018-Aug-14 07:00N 43°33' E 010°18'0 0.0
2018-Aug-14 06:30N 43°33' E 010°18'0 0.0
2018-Aug-14 06:00N 43°33' E 010°18'0 0.0
2018-Aug-14 05:30N 43°33' E 010°18'0 0.0
2018-Aug-14 05:01N 43°33' E 010°18'0 0.0
2018-Aug-14 04:30N 43°33' E 010°18'1 1.6
2018-Aug-14 04:00N 43°32' E 010°17'4 8.3
2018-Aug-14 03:30N 43°30' E 010°13'713.7
2018-Aug-14 03:00N 43°25' E 010°07'816.1
2018-Aug-14 02:30N 43°19' E 009°59'815.6
2018-Aug-14 02:00N 43°16' E 009°49'714.6
2018-Aug-14 01:30N 43°13' E 009°40'714.7
2018-Aug-14 01:00N 43°09' E 009°31'714.7
2018-Aug-14 00:30N 43°06' E 009°22'1314.5
2018-Aug-13 23:37N 43°00' E 009°06'32315.5
2018-Aug-13 02:51N 40°31' E 002°43'715.9
2018-Aug-13 02:25N 40°27' E 002°35'48 1.5
2018-Aug-11 18:09N 40°55' E 001°44'213.0
2018-Aug-11 18:00N 40°57' E 001°45'712.9
2018-Aug-11 17:29N 41°01' E 001°52'613.0
2018-Aug-11 17:00N 41°06' E 001°57'713.2
2018-Aug-11 16:30N 41°11' E 002°03'713.7
2018-Aug-11 16:01N 41°16' E 002°09'510.1
2018-Aug-11 15:30N 41°21' E 002°10'1 0.1
2018-Aug-11 03:34N 41°22' E 002°11'0 0.3
2018-Aug-11 03:30N 41°22' E 002°11'2 4.3
2018-Aug-11 03:00N 41°20' E 002°10'4 8.6
2018-Aug-11 02:30N 41°15' E 002°11'612.3
2018-Aug-11 02:00N 41°09' E 002°11'612.2
2018-Aug-11 01:30N 41°03' E 002°12'9512.3
2018-Aug-10 17:46N 39°28' E 002°22'413.7
2018-Aug-10 17:30N 39°26' E 002°25'612.7
2018-Aug-10 17:01N 39°26' E 002°33'713.6
2018-Aug-10 16:30N 39°32' E 002°39'2 3.3
2018-Aug-10 16:00N 39°33' E 002°38'0 0.0
2018-Aug-10 15:30N 39°33' E 002°38'0 0.0
2018-Aug-10 15:00N 39°33' E 002°38'0 0.0
2018-Aug-10 14:30N 39°33' E 002°38'0 0.0
2018-Aug-10 13:59N 39°33' E 002°38'0 0.0
2018-Aug-10 13:29N 39°33' E 002°38'0 0.0
2018-Aug-10 12:59N 39°33' E 002°38'0 0.0
2018-Aug-10 12:28N 39°33' E 002°38'0 0.0
2018-Aug-10 11:58N 39°33' E 002°38'0 0.0
2018-Aug-10 11:28N 39°33' E 002°38'0 0.0
2018-Aug-10 10:58N 39°33' E 002°38'0 0.0
2018-Aug-10 10:28N 39°33' E 002°38'0 0.0
2018-Aug-10 09:58N 39°33' E 002°38'0 0.0
2018-Aug-10 09:28N 39°33' E 002°38'0 0.0
2018-Aug-10 09:00N 39°33' E 002°38'0 0.0
2018-Aug-10 08:30N 39°33' E 002°38'0 0.0
2018-Aug-10 08:00N 39°33' E 002°38'0 0.0
2018-Aug-10 07:30N 39°33' E 002°38'0 0.0
2018-Aug-10 07:00N 39°33' E 002°38'0 0.0
2018-Aug-10 06:30N 39°33' E 002°38'2 3.1
2018-Aug-10 06:00N 39°32' E 002°38'612.5
2018-Aug-10 05:30N 39°27' E 002°34'611.7
2018-Aug-10 05:00N 39°26' E 002°26'612.5
2018-Aug-10 04:30N 39°29' E 002°20'2510.0
2018-Aug-10 02:00N 39°53' E 002°33'611.6
2018-Aug-10 01:30N 39°57' E 002°38'1411.3
2018-Aug-10 00:19N 40°06' E 002°51'411.6
2018-Aug-10 00:00N 40°09' E 002°54'26410.7
2018-Aug-08 23:23N 43°20' E 006°58'512.4
2018-Aug-08 23:00N 43°23' E 007°02'612.3
2018-Aug-08 22:30N 43°28' E 007°08'712.2
2018-Aug-08 21:55N 43°33' E 007°14'611.8
2018-Aug-08 21:24N 43°39' E 007°18'1 0.1
2018-Aug-08 05:13N 43°39' E 007°19'45 7.1
2018-Aug-07 22:55N 43°43' E 008°21'3 7.5
2018-Aug-07 22:28N 43°45' E 008°25'3 7.3
2018-Aug-07 22:00N 43°47' E 008°28'4 7.3
2018-Aug-07 21:30N 43°50' E 008°32'4 7.2
2018-Aug-07 21:00N 43°52' E 008°36'4 7.3
2018-Aug-07 20:30N 43°54' E 008°40'4 7.3
2018-Aug-07 20:00N 43°57' E 008°44'4 7.3
2018-Aug-07 19:30N 43°59' E 008°48'4 7.1
2018-Aug-07 19:00N 44°01' E 008°51'4 7.2
2018-Aug-07 18:30N 44°04' E 008°55'4 7.3
2018-Aug-07 18:00N 44°06' E 008°59'3 6.7
2018-Aug-07 17:31N 44°09' E 009°02'2 4.7
2018-Aug-07 17:00N 44°10' E 009°05'2 4.7
2018-Aug-07 16:31N 44°11' E 009°08'2 4.9
2018-Aug-07 16:00N 44°13' E 009°10'3 5.6
2018-Aug-07 15:30N 44°15' E 009°13'4 6.9
2018-Aug-07 14:59N 44°18' E 009°14'0 0.2
2018-Aug-07 14:29N 44°18' E 009°14'0 0.0
2018-Aug-07 13:58N 44°18' E 009°14'0 0.0
2018-Aug-07 13:28N 44°18' E 009°14'0 0.0
2018-Aug-07 13:00N 44°18' E 009°14'0 0.0
2018-Aug-07 12:30N 44°18' E 009°14'0 0.0
2018-Aug-07 12:00N 44°18' E 009°14'0 0.0
2018-Aug-07 11:30N 44°18' E 009°14'0 0.0
2018-Aug-07 11:00N 44°18' E 009°14'0 0.0
2018-Aug-07 10:30N 44°18' E 009°14'0 0.0
2018-Aug-07 10:00N 44°18' E 009°14'0 0.0
2018-Aug-07 09:30N 44°18' E 009°14'0 0.0
2018-Aug-07 09:00N 44°18' E 009°14'0 0.0
2018-Aug-07 08:29N 44°18' E 009°14'0 0.0
2018-Aug-07 08:00N 44°18' E 009°14'0 0.0
2018-Aug-07 07:30N 44°18' E 009°14'0 0.0
2018-Aug-07 07:00N 44°18' E 009°14'0 0.0
2018-Aug-07 06:30N 44°18' E 009°14'0 0.0
2018-Aug-07 06:00N 44°18' E 009°14'0 0.0
2018-Aug-07 05:29N 44°18' E 009°14'3 5.6
2018-Aug-07 05:00N 44°17' E 009°17'612.5
2018-Aug-07 04:30N 44°11' E 009°14'613.0
2018-Aug-07 04:00N 44°05' E 009°11'713.3
2018-Aug-07 03:30N 43°58' E 009°08'713.4
2018-Aug-07 03:00N 43°52' E 009°05'714.0
2018-Aug-07 02:30N 43°45' E 009°02'713.6
2018-Aug-07 02:01N 43°39' E 008°59'713.6
2018-Aug-07 01:31N 43°32' E 008°57'713.5
2018-Aug-07 01:00N 43°26' E 008°54'713.5
2018-Aug-07 00:30N 43°19' E 008°51'713.8
2018-Aug-07 00:01N 43°13' E 008°48'713.9
2018-Aug-06 23:31N 43°06' E 008°46'713.8
2018-Aug-06 23:00N 42°60' E 008°43'713.9
2018-Aug-06 22:30N 42°53' E 008°40'713.9
2018-Aug-06 22:00N 42°46' E 008°37'713.9
2018-Aug-06 21:30N 42°40' E 008°34'714.2
2018-Aug-06 21:00N 42°33' E 008°31'714.5
2018-Aug-06 20:30N 42°26' E 008°28'714.0
2018-Aug-06 20:00N 42°19' E 008°27'714.3
2018-Aug-06 19:30N 42°12' E 008°28'814.2
2018-Aug-06 18:55N 42°04' E 008°29'614.3
2018-Aug-06 18:30N 41°58' E 008°29'714.2
2018-Aug-06 18:00N 41°51' E 008°30'14 1.3
2018-Aug-06 07:25N 41°39' E 008°39'818.1
2018-Aug-06 06:59N 41°32' E 008°43'21517.9
2018-Aug-05 19:00N 40°43' E 013°21'918.4
2018-Aug-05 18:30N 40°41' E 013°33'918.5
2018-Aug-05 18:00N 40°39' E 013°44'918.3
2018-Aug-05 17:30N 40°39' E 013°57'917.2
2018-Aug-05 17:00N 40°41' E 014°07'817.0
2018-Aug-05 16:30N 40°47' E 014°15'3 5.5
2018-Aug-05 15:55N 40°50' E 014°16'0 0.0
2018-Aug-05 15:28N 40°50' E 014°16'0 0.0
2018-Aug-05 14:58N 40°50' E 014°16'0 0.0
2018-Aug-05 14:00N 40°50' E 014°16'0 0.0
2018-Aug-05 13:30N 40°50' E 014°16'0 0.0
2018-Aug-05 12:59N 40°50' E 014°16'0 0.0
2018-Aug-05 12:27N 40°50' E 014°16'0 0.0
2018-Aug-05 12:00N 40°50' E 014°16'0 0.0
2018-Aug-05 11:26N 40°50' E 014°16'0 0.0
2018-Aug-05 10:59N 40°50' E 014°16'0 0.0
2018-Aug-05 10:29N 40°50' E 014°16'0 0.0
2018-Aug-05 09:59N 40°50' E 014°16'0 0.0
2018-Aug-05 09:29N 40°50' E 014°16'0 0.0
2018-Aug-05 08:59N 40°50' E 014°16'0 0.0
2018-Aug-05 08:29N 40°50' E 014°16'0 0.0
2018-Aug-05 07:59N 40°50' E 014°16'0 0.0
2018-Aug-05 07:29N 40°50' E 014°16'0 0.0
2018-Aug-05 06:56N 40°50' E 014°16'0 0.0
2018-Aug-05 06:29N 40°50' E 014°16'0 0.0
2018-Aug-05 05:59N 40°50' E 014°16'0 0.0
2018-Aug-05 05:29N 40°50' E 014°16'0 0.0
2018-Aug-05 05:00N 40°50' E 014°16'0 0.4
2018-Aug-05 04:31N 40°50' E 014°16'3 5.2
2018-Aug-05 04:01N 40°48' E 014°16'611.5
2018-Aug-05 03:31N 40°44' E 014°11'612.4
2018-Aug-05 03:01N 40°39' E 014°05'612.3
2018-Aug-05 02:31N 40°39' E 013°57'612.6
2018-Aug-05 02:01N 40°40' E 013°48'713.1
2018-Aug-05 01:31N 40°44' E 013°42'713.0
2018-Aug-05 01:00N 40°48' E 013°35'612.8
2018-Aug-05 00:31N 40°52' E 013°28'612.7
2018-Aug-05 00:01N 40°55' E 013°21'612.8
2018-Aug-04 23:30N 40°58' E 013°14'712.9
2018-Aug-04 23:00N 41°02' E 013°06'712.8
2018-Aug-04 22:26N 41°06' E 012°58'912.9
2018-Aug-04 21:46N 41°09' E 012°48'313.2
2018-Aug-04 21:31N 41°11' E 012°44'1412.7
2018-Aug-04 20:24N 41°19' E 012°29'512.7
2018-Aug-04 19:59N 41°22' E 012°23'  

Dump ship's entire track history